Terminal Aerodrome Forecast
Issued by NWS

Home | Current Version | Previous Version | Text Only | Print | Product List | Glossary On
Versions: 1 2 3 4 5 6 7 8 9 10 11 12 13 14 15 16 17 18 19 20 21
000
FTUS46 KHNX 211604 AAA
TAFMER
TAF AMD
KMER 211604Z 2116/2212 35006KT 1 1/2SM BR OVC005
      TEMPO 2116/2118 3SM BR
     FM211800 34006KT 3SM BR BKN008
     FM212100 34005KT 5SM HZ BKN100
     FM220300 VRB03KT 4SM HZ BKN050=

USA.gov is the U.S. government's official web portal to all federal, state and local government web resources and services.